createdAt,value
2023-05-07T00:01:22.382Z,92.00
2023-05-07T00:03:50.775Z,92.00
2023-05-07T00:06:19.158Z,92.10
2023-05-07T00:08:47.364Z,92.00
2023-05-07T00:11:15.771Z,92.00
2023-05-07T00:13:44.056Z,92.00
2023-05-07T00:16:12.283Z,92.10
2023-05-07T00:18:41.897Z,92.00
2023-05-07T00:21:10.241Z,92.00
2023-05-07T00:23:38.888Z,91.90
2023-05-07T00:26:07.219Z,91.90
2023-05-07T00:28:35.659Z,91.90
2023-05-07T00:31:03.911Z,91.90
2023-05-07T00:33:32.131Z,91.90
2023-05-07T00:36:02.976Z,91.90
2023-05-07T00:38:31.350Z,91.90
2023-05-07T00:40:59.526Z,92.00
2023-05-07T00:43:28.508Z,92.00
2023-05-07T00:45:56.880Z,92.10
2023-05-07T00:48:25.443Z,92.10
2023-05-07T00:50:54.014Z,92.30
2023-05-07T00:53:23.626Z,92.10
2023-05-07T00:55:51.999Z,92.30
2023-05-07T00:58:20.820Z,92.20
2023-05-07T01:00:49.075Z,92.30
2023-05-07T01:03:17.369Z,92.20
2023-05-07T01:05:48.084Z,92.20
2023-05-07T01:08:18.877Z,92.30
2023-05-07T01:10:49.059Z,92.20
2023-05-07T01:13:18.207Z,92.00
2023-05-07T01:15:46.526Z,92.10
2023-05-07T01:18:16.011Z,92.30
2023-05-07T01:20:44.737Z,92.30
2023-05-07T01:23:14.664Z,92.40
2023-05-07T01:25:42.947Z,92.30
2023-05-07T01:28:11.149Z,92.30
2023-05-07T01:30:51.570Z,92.50
2023-05-07T01:33:23.580Z,92.50
2023-05-07T01:35:55.363Z,92.60
2023-05-07T01:38:25.875Z,92.60
2023-05-07T01:40:55.347Z,92.60
2023-05-07T01:43:23.587Z,92.60
2023-05-07T01:45:52.460Z,92.50
2023-05-07T01:48:21.436Z,92.60
2023-05-07T01:50:50.984Z,92.40
2023-05-07T01:53:19.221Z,92.30
2023-05-07T01:55:48.748Z,92.40
2023-05-07T01:58:17.001Z,92.40
2023-05-07T02:00:45.205Z,92.50
2023-05-07T02:03:13.504Z,92.40
2023-05-07T02:05:41.804Z,92.30
2023-05-07T02:08:10.029Z,92.30
2023-05-07T02:10:38.364Z,92.20
2023-05-07T02:13:08.123Z,92.20
2023-05-07T02:15:36.369Z,92.20
2023-05-07T02:18:07.306Z,92.20
2023-05-07T02:20:35.890Z,92.20
2023-05-07T02:23:04.214Z,92.30
2023-05-07T02:25:32.624Z,92.20
2023-05-07T02:28:00.932Z,92.10
2023-05-07T02:30:31.390Z,92.10
2023-05-07T02:32:59.571Z,92.10
2023-05-07T02:35:27.944Z,92.00
2023-05-07T02:37:56.245Z,92.20
2023-05-07T02:40:24.788Z,91.90
2023-05-07T02:42:52.990Z,91.70
2023-05-07T02:45:21.196Z,91.70
2023-05-07T02:47:50.818Z,91.80
2023-05-07T02:50:19.133Z,92.00
2023-05-07T02:52:48.282Z,92.00
2023-05-07T02:55:16.646Z,92.20
2023-05-07T02:57:44.850Z,92.20
2023-05-07T03:00:15.481Z,92.20
2023-05-07T03:02:44.127Z,92.20
2023-05-07T03:05:15.308Z,92.20
2023-05-07T03:07:46.192Z,91.60
2023-05-07T03:10:14.474Z,91.90
2023-05-07T03:12:42.770Z,92.10
2023-05-07T03:15:13.703Z,92.20
2023-05-07T03:17:41.876Z,92.30
2023-05-07T03:20:12.202Z,92.30
2023-05-07T03:22:42.229Z,92.30
2023-05-07T03:25:11.952Z,92.30
2023-05-07T03:27:40.315Z,92.40
2023-05-07T03:30:10.843Z,92.30
2023-05-07T03:32:39.395Z,92.40
2023-05-07T03:35:08.390Z,92.40
2023-05-07T03:37:36.707Z,92.40
2023-05-07T03:40:08.933Z,92.40
2023-05-07T03:42:37.342Z,92.40
2023-05-07T03:45:07.065Z,92.40
2023-05-07T03:47:35.270Z,92.40
2023-05-07T03:50:03.445Z,92.40
2023-05-07T03:52:31.809Z,92.40
2023-05-07T03:55:00.044Z,92.40
2023-05-07T03:57:29.565Z,92.40
2023-05-07T03:59:57.727Z,92.40
2023-05-07T04:02:26.267Z,92.50
2023-05-07T04:04:55.135Z,92.40
2023-05-07T04:07:24.356Z,92.50
2023-05-07T04:09:52.606Z,92.50
2023-05-07T04:12:20.847Z,92.50
2023-05-07T04:14:50.413Z,92.50
2023-05-07T04:17:18.606Z,92.50
2023-05-07T04:19:46.935Z,92.50
2023-05-07T04:22:15.137Z,92.50
2023-05-07T04:24:43.278Z,92.50
2023-05-07T04:27:11.832Z,92.60
2023-05-07T04:29:43.172Z,92.60
2023-05-07T04:32:13.738Z,92.50
2023-05-07T04:34:42.003Z,92.60
2023-05-07T04:37:10.551Z,92.60
2023-05-07T04:39:38.875Z,92.70
2023-05-07T04:42:08.662Z,92.40
2023-05-07T04:44:38.045Z,92.50
2023-05-07T04:47:06.549Z,92.70
2023-05-07T04:49:36.064Z,92.60
2023-05-07T04:52:04.465Z,92.70
2023-05-07T04:54:32.699Z,92.70
2023-05-07T04:57:00.862Z,92.70
2023-05-07T04:59:29.092Z,92.70
2023-05-07T05:01:57.425Z,92.70
2023-05-07T05:04:25.633Z,92.70
2023-05-07T05:06:55.185Z,92.80
2023-05-07T05:09:23.644Z,92.50
2023-05-07T05:11:51.941Z,92.80
2023-05-07T05:14:20.128Z,92.80
2023-05-07T05:16:48.294Z,92.80
2023-05-07T05:19:16.570Z,92.80
2023-05-07T05:21:44.834Z,92.80
2023-05-07T05:24:14.389Z,92.70
2023-05-07T05:26:42.559Z,92.50
2023-05-07T05:29:11.345Z,92.70
2023-05-07T05:31:39.662Z,92.70
2023-05-07T05:34:07.892Z,92.70
2023-05-07T05:36:36.070Z,92.40
2023-05-07T05:39:04.308Z,92.50
2023-05-07T05:41:33.931Z,92.40
2023-05-07T05:44:02.129Z,92.50
2023-05-07T05:46:30.364Z,92.30
2023-05-07T05:48:58.694Z,92.30
2023-05-07T05:51:27.489Z,92.30
2023-05-07T05:53:55.762Z,92.40
2023-05-07T05:56:24.034Z,92.30
2023-05-07T05:58:53.800Z,92.30
2023-05-07T06:01:22.218Z,92.30
2023-05-07T06:03:50.475Z,92.40
2023-05-07T06:06:18.817Z,92.40
2023-05-07T06:08:46.985Z,92.20
2023-05-07T06:11:15.211Z,92.50
2023-05-07T06:13:43.423Z,92.60
2023-05-07T06:16:13.086Z,92.40
2023-05-07T06:18:41.382Z,92.30
2023-05-07T06:21:09.845Z,92.30
2023-05-07T06:23:38.063Z,91.90
2023-05-07T06:26:06.476Z,91.90
2023-05-07T06:28:36.824Z,92.00
2023-05-07T06:31:18.621Z,91.80
2023-05-07T06:33:47.410Z,92.10
2023-05-07T06:36:15.730Z,92.40
2023-05-07T06:38:44.082Z,92.60
2023-05-07T06:41:12.298Z,92.50
2023-05-07T06:43:40.524Z,92.30
2023-05-07T06:46:09.584Z,92.30
2023-05-07T06:48:39.240Z,92.40
2023-05-07T06:51:07.548Z,92.20
2023-05-07T06:53:36.544Z,92.40
2023-05-07T06:56:04.932Z,92.00
2023-05-07T06:58:33.142Z,92.00
2023-05-07T07:01:01.414Z,91.60
2023-05-07T07:03:29.706Z,91.20
2023-05-07T07:05:59.292Z,91.40
2023-05-07T07:08:27.485Z,91.30
2023-05-07T07:10:55.795Z,91.30
2023-05-07T07:13:24.054Z,91.60
2023-05-07T07:15:53.933Z,91.90
2023-05-07T07:18:22.383Z,92.10
2023-05-07T07:20:50.870Z,92.10
2023-05-07T07:23:22.521Z,92.20
2023-05-07T07:25:50.744Z,91.90
2023-05-07T07:28:19.413Z,91.80
2023-05-07T07:30:47.907Z,91.80
2023-05-07T07:33:16.175Z,91.80
2023-05-07T07:35:45.207Z,91.60
2023-05-07T07:38:13.449Z,91.60
2023-05-07T07:40:44.842Z,91.50
2023-05-07T07:43:13.008Z,91.60
2023-05-07T07:45:42.031Z,91.60
2023-05-07T07:48:10.339Z,91.30
2023-05-07T07:50:45.060Z,91.20
2023-05-07T07:53:13.763Z,90.90
2023-05-07T07:55:43.349Z,91.00
2023-05-07T07:58:14.314Z,90.90
2023-05-07T08:00:42.563Z,91.10
2023-05-07T08:03:12.602Z,91.00
2023-05-07T08:05:41.083Z,90.90
2023-05-07T08:08:09.884Z,90.80
2023-05-07T08:10:40.188Z,90.90
2023-05-07T08:13:09.956Z,90.50
2023-05-07T08:15:38.275Z,90.00
2023-05-07T08:18:06.796Z,90.20
2023-05-07T08:20:40.232Z,90.40
2023-05-07T08:23:08.785Z,90.30
2023-05-07T08:25:37.287Z,89.90
2023-05-07T08:28:07.201Z,90.20
2023-05-07T08:30:38.736Z,90.30
2023-05-07T08:33:07.076Z,90.00
2023-05-07T08:35:35.453Z,89.50
2023-05-07T08:38:03.688Z,89.50
2023-05-07T08:40:37.574Z,89.60
2023-05-07T08:43:08.110Z,88.90
2023-05-07T08:45:40.380Z,88.70
2023-05-07T08:48:19.364Z,87.10
2023-05-07T08:50:47.969Z,87.20
2023-05-07T08:53:17.110Z,87.40
2023-05-07T08:55:45.316Z,86.90
2023-05-07T08:58:13.525Z,87.10
2023-05-07T09:00:44.917Z,87.20
2023-05-07T09:03:13.902Z,86.40
2023-05-07T09:05:42.371Z,87.20
2023-05-07T09:08:10.769Z,86.50
2023-05-07T09:10:38.965Z,86.30
2023-05-07T09:13:07.158Z,86.10
2023-05-07T09:15:35.402Z,86.20
2023-05-07T09:18:05.291Z,84.90
2023-05-07T09:20:33.877Z,85.10
2023-05-07T09:23:02.117Z,85.00
2023-05-07T09:25:31.294Z,84.90
2023-05-07T09:27:59.850Z,85.50
2023-05-07T09:30:31.039Z,83.60
2023-05-07T09:33:00.235Z,84.30
2023-05-07T09:35:30.337Z,84.50
2023-05-07T09:38:03.661Z,85.10
2023-05-07T09:40:33.509Z,84.10
2023-05-07T09:43:13.646Z,84.70
2023-05-07T09:45:43.706Z,84.70
2023-05-07T09:48:12.801Z,84.70
2023-05-07T09:50:51.129Z,84.50
2023-05-07T09:53:20.717Z,84.50
2023-05-07T09:55:49.416Z,83.90
2023-05-07T09:58:18.568Z,83.60
2023-05-07T10:00:47.679Z,84.40
2023-05-07T10:03:16.797Z,83.40
2023-05-07T10:05:48.457Z,84.00
2023-05-07T10:08:17.949Z,80.20
2023-05-07T10:10:47.340Z,78.60
2023-05-07T10:13:15.848Z,78.70
2023-05-07T10:15:44.682Z,76.10
2023-05-07T10:18:14.551Z,75.70
2023-05-07T10:20:48.050Z,77.20
2023-05-07T10:23:21.864Z,76.10
2023-05-07T10:25:51.565Z,76.70
2023-05-07T10:28:21.915Z,77.70
2023-05-07T10:31:03.592Z,77.10
2023-05-07T10:33:34.296Z,79.00
2023-05-07T10:36:05.474Z,77.70
2023-05-07T10:38:34.006Z,79.20
2023-05-07T10:41:02.343Z,79.30
2023-05-07T10:43:42.907Z,79.50
2023-05-07T10:46:17.712Z,80.20
2023-05-07T10:49:13.950Z,79.60
2023-05-07T10:51:43.586Z,79.60
2023-05-07T10:54:28.197Z,78.70
2023-05-07T10:56:56.579Z,77.40
2023-05-07T10:59:43.222Z,77.60
2023-05-07T11:02:15.211Z,76.20
2023-05-07T11:04:43.743Z,77.30
2023-05-07T11:07:31.980Z,77.50
2023-05-07T11:10:06.680Z,80.30
2023-05-07T11:12:57.160Z,79.80
2023-05-07T11:15:44.383Z,77.90
2023-05-07T11:18:14.676Z,76.40
2023-05-07T11:20:57.904Z,72.30
2023-05-07T11:24:02.549Z,74.20
2023-05-07T11:26:33.661Z,70.90
2023-05-07T11:29:02.746Z,73.50
2023-05-07T11:31:31.133Z,77.00
2023-05-07T11:34:00.162Z,79.00
2023-05-07T11:36:33.821Z,74.60
2023-05-07T11:39:04.835Z,74.70
2023-05-07T11:41:37.769Z,75.20
2023-05-07T11:44:06.323Z,77.40
2023-05-07T11:46:35.855Z,78.10
2023-05-07T11:49:04.327Z,78.60
2023-05-07T11:51:34.242Z,75.00
2023-05-07T11:54:09.635Z,75.50
2023-05-07T11:56:39.343Z,76.30
2023-05-07T11:59:07.916Z,76.40
2023-05-07T12:01:38.204Z,75.30
2023-05-07T12:04:07.379Z,73.90
2023-05-07T12:06:40.015Z,72.40
2023-05-07T12:09:12.528Z,74.40
2023-05-07T12:11:41.767Z,74.60
2023-05-07T12:14:12.116Z,71.30
2023-05-07T12:16:42.172Z,72.90
2023-05-07T12:19:15.708Z,69.00
2023-05-07T12:21:44.417Z,73.50
2023-05-07T12:24:14.100Z,72.20
2023-05-07T12:26:43.050Z,75.80
2023-05-07T12:29:11.297Z,74.40
2023-05-07T12:31:43.232Z,74.30
2023-05-07T12:34:13.494Z,73.10
2023-05-07T12:36:42.754Z,72.00
2023-05-07T12:39:12.934Z,73.80
2023-05-07T12:41:56.700Z,74.40
2023-05-07T12:44:25.631Z,75.60
2023-05-07T12:46:54.395Z,75.80
2023-05-07T12:49:25.149Z,78.10
2023-05-07T12:51:54.103Z,75.80
2023-05-07T12:54:34.129Z,75.00
2023-05-07T12:57:07.553Z,77.80
2023-05-07T12:59:37.093Z,77.30
2023-05-07T13:02:06.319Z,76.80
2023-05-07T13:04:34.979Z,75.60
2023-05-07T13:07:03.672Z,76.00
2023-05-07T13:09:33.658Z,77.40
2023-05-07T13:12:02.594Z,76.10
2023-05-07T13:14:30.876Z,76.70
2023-05-07T13:16:59.106Z,77.40
2023-05-07T13:19:29.042Z,76.20
2023-05-07T13:21:57.919Z,76.30
2023-05-07T13:24:26.389Z,76.80
2023-05-07T13:26:56.049Z,76.70
2023-05-07T13:29:29.596Z,72.40
2023-05-07T13:31:58.788Z,72.90
2023-05-07T13:34:27.365Z,72.30
2023-05-07T13:36:56.189Z,74.30
2023-05-07T13:39:24.494Z,73.30
2023-05-07T13:41:52.776Z,71.70
2023-05-07T13:44:22.484Z,74.30
2023-05-07T13:46:51.121Z,74.70
2023-05-07T13:49:19.353Z,75.00
2023-05-07T13:51:47.544Z,74.40
2023-05-07T13:54:16.853Z,76.50
2023-05-07T13:56:45.018Z,76.20
2023-05-07T13:59:15.278Z,77.10
2023-05-07T14:01:44.996Z,73.20
2023-05-07T14:04:13.304Z,74.10
2023-05-07T14:06:41.542Z,75.30
2023-05-07T14:09:09.760Z,76.10
2023-05-07T14:11:37.953Z,76.90
2023-05-07T14:14:06.195Z,76.90
2023-05-07T14:16:34.618Z,78.50
2023-05-07T14:19:04.256Z,79.10
2023-05-07T14:21:33.016Z,79.60
2023-05-07T14:24:01.491Z,80.40
2023-05-07T14:26:30.273Z,79.70
2023-05-07T14:28:59.451Z,79.00
2023-05-07T14:31:28.063Z,78.90
2023-05-07T14:33:58.872Z,80.10
2023-05-07T14:36:28.568Z,79.70
2023-05-07T14:38:56.866Z,79.90
2023-05-07T14:41:25.498Z,80.90
2023-05-07T14:43:53.739Z,78.60
2023-05-07T14:46:22.369Z,79.00
2023-05-07T14:48:50.664Z,78.40
2023-05-07T14:51:18.970Z,77.50
2023-05-07T14:53:48.650Z,77.80
2023-05-07T14:56:17.867Z,80.00
2023-05-07T14:58:46.258Z,79.30
2023-05-07T15:01:14.617Z,79.80
2023-05-07T15:03:43.086Z,80.50
2023-05-07T15:06:11.516Z,79.00
2023-05-07T15:08:39.824Z,78.80
2023-05-07T15:11:09.410Z,80.10
2023-05-07T15:13:37.572Z,79.10
2023-05-07T15:16:06.237Z,79.00
2023-05-07T15:18:34.560Z,79.00
2023-05-07T15:21:02.813Z,78.10
2023-05-07T15:23:31.244Z,77.90
2023-05-07T15:26:00.216Z,77.30
2023-05-07T15:28:29.945Z,76.50
2023-05-07T15:30:58.170Z,76.80
2023-05-07T15:33:26.708Z,77.70
2023-05-07T15:35:55.005Z,76.50
2023-05-07T15:38:23.334Z,76.30
2023-05-07T15:40:51.530Z,76.10
2023-05-07T15:43:19.833Z,76.90
2023-05-07T15:45:49.596Z,76.20
2023-05-07T15:48:17.853Z,75.50
2023-05-07T15:50:46.097Z,75.00
2023-05-07T15:53:14.640Z,73.70
2023-05-07T15:55:44.381Z,75.40
2023-05-07T15:58:12.633Z,75.10
2023-05-07T16:00:42.242Z,75.70
2023-05-07T16:03:11.962Z,75.80
2023-05-07T16:05:40.322Z,75.70
2023-05-07T16:08:08.498Z,76.20
2023-05-07T16:10:36.754Z,76.90
2023-05-07T16:13:04.983Z,76.60
2023-05-07T16:15:33.239Z,76.60
2023-05-07T16:18:01.505Z,76.10
2023-05-07T16:20:31.628Z,75.00
2023-05-07T16:23:00.285Z,76.20
2023-05-07T16:25:28.792Z,77.60
2023-05-07T16:27:57.332Z,77.70
2023-05-07T16:30:25.784Z,78.10
2023-05-07T16:32:54.049Z,78.50
2023-05-07T16:35:22.474Z,79.40
2023-05-07T16:37:52.994Z,78.90
2023-05-07T16:40:21.288Z,78.70
2023-05-07T16:42:49.510Z,78.60
2023-05-07T16:45:18.731Z,79.10
2023-05-07T16:47:47.135Z,79.60
2023-05-07T16:50:15.683Z,79.90
2023-05-07T16:52:43.882Z,79.70
2023-05-07T16:55:14.017Z,79.20
2023-05-07T16:57:42.455Z,78.80
2023-05-07T17:00:12.329Z,80.00
2023-05-07T17:02:40.650Z,78.80
2023-05-07T17:05:10.359Z,79.00
2023-05-07T17:07:38.820Z,79.70
2023-05-07T17:10:08.676Z,79.70
2023-05-07T17:12:38.396Z,79.60
2023-05-07T17:15:07.912Z,79.20
2023-05-07T17:17:36.323Z,79.50
2023-05-07T17:20:05.890Z,79.40
2023-05-07T17:22:34.412Z,78.30
2023-05-07T17:25:04.271Z,79.60
2023-05-07T17:27:34.465Z,79.10
2023-05-07T17:30:04.402Z,79.60
2023-05-07T17:32:34.836Z,79.80
2023-05-07T17:35:03.579Z,79.90
2023-05-07T17:37:31.837Z,79.50
2023-05-07T17:40:00.512Z,80.30
2023-05-07T17:42:28.738Z,79.90
2023-05-07T17:44:56.966Z,79.10
2023-05-07T17:47:26.559Z,78.80
2023-05-07T17:49:54.879Z,78.20
2023-05-07T17:52:24.118Z,77.90
2023-05-07T17:54:52.434Z,77.90
2023-05-07T17:57:20.661Z,77.30
2023-05-07T17:59:49.035Z,77.20
2023-05-07T18:02:17.244Z,77.40
2023-05-07T18:04:47.411Z,76.80
2023-05-07T18:07:15.725Z,78.00
2023-05-07T18:09:43.976Z,77.90
2023-05-07T18:12:12.234Z,78.10
2023-05-07T18:14:40.456Z,78.00
2023-05-07T18:17:08.703Z,78.40
2023-05-07T18:19:36.948Z,78.90
2023-05-07T18:22:06.602Z,78.00
2023-05-07T18:24:34.830Z,78.40
2023-05-07T18:27:03.153Z,77.70
2023-05-07T18:29:31.637Z,78.50
2023-05-07T18:31:59.936Z,78.80
2023-05-07T18:34:28.195Z,78.70
2023-05-07T18:36:56.475Z,79.20
2023-05-07T18:39:26.178Z,79.80
2023-05-07T18:41:54.506Z,79.60
2023-05-07T18:44:22.848Z,80.10
2023-05-07T18:46:51.146Z,79.40
2023-05-07T18:49:19.562Z,79.80
2023-05-07T18:51:47.881Z,79.80
2023-05-07T18:54:16.410Z,80.40
2023-05-07T18:56:46.991Z,80.40
2023-05-07T18:59:15.580Z,80.30
2023-05-07T19:01:44.293Z,80.60
2023-05-07T19:04:12.624Z,80.50
2023-05-07T19:06:40.891Z,80.50
2023-05-07T19:09:09.199Z,81.00
2023-05-07T19:11:37.451Z,81.00
2023-05-07T19:14:10.135Z,81.00
2023-05-07T19:16:38.829Z,81.60
2023-05-07T19:19:07.213Z,82.00
2023-05-07T19:21:35.487Z,82.20
2023-05-07T19:24:03.821Z,82.10
2023-05-07T19:26:32.262Z,82.70
2023-05-07T19:31:33.650Z,82.60
2023-05-07T19:34:02.939Z,82.80
2023-05-07T19:36:33.352Z,83.30
2023-05-07T19:39:01.972Z,83.40
2023-05-07T19:41:31.424Z,83.90
2023-05-07T19:44:03.846Z,83.70
2023-05-07T19:46:33.516Z,83.70
2023-05-07T19:49:02.302Z,84.10
2023-05-07T19:51:32.490Z,84.00
2023-05-07T19:54:02.547Z,84.00
2023-05-07T19:56:31.460Z,84.30
2023-05-07T19:59:03.525Z,85.10
2023-05-07T20:01:33.214Z,84.80
2023-05-07T20:04:01.653Z,85.00
2023-05-07T20:06:31.030Z,85.20
2023-05-07T20:08:59.308Z,85.00
2023-05-07T20:11:32.918Z,85.40
2023-05-07T20:14:01.442Z,85.20
2023-05-07T20:16:30.142Z,85.30
2023-05-07T20:18:59.914Z,85.30
2023-05-07T20:21:28.183Z,85.50
2023-05-07T20:23:56.939Z,85.50
2023-05-07T20:26:26.414Z,85.80
2023-05-07T20:28:54.726Z,85.80
2023-05-07T20:31:23.069Z,85.50
2023-05-07T20:33:51.422Z,85.70
2023-05-07T20:36:21.040Z,85.70
2023-05-07T20:38:49.280Z,85.50
2023-05-07T20:41:17.712Z,85.70
2023-05-07T20:43:46.222Z,86.10
2023-05-07T20:46:14.520Z,85.90
2023-05-07T20:48:43.306Z,86.20
2023-05-07T20:51:13.641Z,86.20
2023-05-07T20:53:45.470Z,86.30
2023-05-07T20:56:16.326Z,86.50
2023-05-07T20:58:44.596Z,86.60
2023-05-07T21:01:12.947Z,86.60
2023-05-07T21:03:41.290Z,86.80
2023-05-07T21:06:09.518Z,86.80
2023-05-07T21:08:37.788Z,86.90
2023-05-07T21:11:09.844Z,87.10
2023-05-07T21:13:38.135Z,87.20
2023-05-07T21:16:06.767Z,87.30
2023-05-07T21:18:35.025Z,87.30
2023-05-07T21:21:03.293Z,87.50
2023-05-07T21:23:31.531Z,87.70
2023-05-07T21:25:59.784Z,87.60
2023-05-07T21:28:29.517Z,87.60
2023-05-07T21:30:57.781Z,87.70
2023-05-07T21:33:26.027Z,87.60
2023-05-07T21:35:54.308Z,87.60
2023-05-07T21:38:22.499Z,87.60
2023-05-07T21:40:50.819Z,87.60
2023-05-07T21:43:19.042Z,87.60
2023-05-07T21:45:48.620Z,87.80
2023-05-07T21:48:18.528Z,87.50
2023-05-07T21:50:47.162Z,87.90
2023-05-07T21:53:15.485Z,87.80
2023-05-07T21:55:43.680Z,88.00
2023-05-07T21:58:11.916Z,88.00
2023-05-07T22:00:40.119Z,88.10
2023-05-07T22:03:09.983Z,88.20
2023-05-07T22:05:38.360Z,88.20
2023-05-07T22:08:06.757Z,88.30
2023-05-07T22:10:35.002Z,88.30
2023-05-07T22:13:03.209Z,88.30
2023-05-07T22:15:32.613Z,88.20
2023-05-07T22:18:02.093Z,88.40
2023-05-07T22:20:31.849Z,88.60
2023-05-07T22:23:00.021Z,88.70
2023-05-07T22:25:28.184Z,88.70
2023-05-07T22:27:56.437Z,88.90
2023-05-07T22:30:24.730Z,88.40
2023-05-07T22:32:53.183Z,88.80
2023-05-07T22:35:21.610Z,88.90
2023-05-07T22:37:51.197Z,88.80
2023-05-07T22:40:19.764Z,88.60
2023-05-07T22:42:47.929Z,88.70
2023-05-07T22:45:16.167Z,88.80
2023-05-07T22:47:44.403Z,89.00
2023-05-07T22:50:13.560Z,89.10
2023-05-07T22:52:41.983Z,89.00
2023-05-07T22:55:11.756Z,89.10
2023-05-07T22:57:39.942Z,89.10
2023-05-07T23:00:09.795Z,89.00
2023-05-07T23:02:38.290Z,89.00
2023-05-07T23:05:07.692Z,89.00
2023-05-07T23:07:36.029Z,88.90
2023-05-07T23:10:04.681Z,89.00
2023-05-07T23:12:34.289Z,88.50
2023-05-07T23:15:02.520Z,88.80
2023-05-07T23:17:30.744Z,88.80
2023-05-07T23:19:58.958Z,89.00
2023-05-07T23:22:27.355Z,89.10
2023-05-07T23:24:55.566Z,89.20
2023-05-07T23:27:23.789Z,89.20
2023-05-07T23:29:53.359Z,89.10
2023-05-07T23:32:21.558Z,89.40
2023-05-07T23:34:51.320Z,89.50
2023-05-07T23:37:19.564Z,89.40
2023-05-07T23:39:48.030Z,89.40
2023-05-07T23:42:16.460Z,89.50
2023-05-07T23:44:44.682Z,89.50
2023-05-07T23:47:14.284Z,89.60
2023-05-07T23:49:42.892Z,89.70
2023-05-07T23:52:11.076Z,89.50
2023-05-07T23:54:39.270Z,89.60
2023-05-07T23:57:07.507Z,89.70
2023-05-07T23:59:35.747Z,89.60
